Terminal Aerodrome Forecast
Issued by NWS

Home | Current Version | Previous Version | Text Only | Print | Product List | Glossary On
Versions: 1 2 3 4 5 6 7 8 9 10 11 12 13 14
671
FTUS43 KJKL 271750
TAFSME
TAF
KSME 271750Z 2718/2818 22007KT P6SM VCTS SCT030CB BKN060
     FM272300 19006KT 3SM -SHRA BR VCTS SCT030CB BKN090
     FM280300 17006KT 6SM -SHRA BR VCTS SCT045CB BKN080
     FM280600 21006KT 3SM -SHRA BR SCT015 OVC025
     FM281200 VRB06KT P6SM -SHRA SCT003 OVC015
     FM281400 25005KT P6SM SCT008 BKN010=

USA.gov is the U.S. government's official web portal to all federal, state and local government web resources and services.